sensor_id;sensor_type;location;lat;lon;timestamp;pressure;altitude;pressure_sealevel;temperature;humidity
77323;BME280;66384;51.052;9.850;2023-04-24T00:01:31;97324.02;;;12.02;67.53
77323;BME280;66384;51.052;9.850;2023-04-24T00:04:02;97325.23;;;12.01;67.41
77323;BME280;66384;51.052;9.850;2023-04-24T00:06:31;97330.21;;;12.01;67.43
77323;BME280;66384;51.052;9.850;2023-04-24T00:09:02;97328.83;;;11.99;67.55
77323;BME280;66384;51.052;9.850;2023-04-24T00:11:31;97327.11;;;11.96;67.66
77323;BME280;66384;51.052;9.850;2023-04-24T00:14:01;97321.10;;;11.92;67.93
77323;BME280;66384;51.052;9.850;2023-04-24T00:16:30;97311.45;;;11.87;68.02
77323;BME280;66384;51.052;9.850;2023-04-24T00:18:59;97310.05;;;11.83;68.06
77323;BME280;66384;51.052;9.850;2023-04-24T00:21:29;97316.60;;;11.81;68.05
77323;BME280;66384;51.052;9.850;2023-04-24T00:24:00;97320.89;;;11.79;67.95
77323;BME280;66384;51.052;9.850;2023-04-24T00:26:30;97317.63;;;11.80;68.12
77323;BME280;66384;51.052;9.850;2023-04-24T00:28:59;97306.77;;;11.79;68.14
77323;BME280;66384;51.052;9.850;2023-04-24T00:31:28;97307.81;;;11.79;68.10
77323;BME280;66384;51.052;9.850;2023-04-24T00:33:59;97307.80;;;11.79;68.06
77323;BME280;66384;51.052;9.850;2023-04-24T00:36:28;97302.64;;;11.78;67.96
77323;BME280;66384;51.052;9.850;2023-04-24T00:38:58;97299.38;;;11.76;68.04
77323;BME280;66384;51.052;9.850;2023-04-24T00:41:27;97300.59;;;11.75;67.90
77323;BME280;66384;51.052;9.850;2023-04-24T00:43:57;97301.27;;;11.74;67.91
77323;BME280;66384;51.052;9.850;2023-04-24T00:46:26;97299.22;;;11.74;68.06
77323;BME280;66384;51.052;9.850;2023-04-24T00:48:57;97295.92;;;11.76;68.00
77323;BME280;66384;51.052;9.850;2023-04-24T00:51:28;97292.31;;;11.77;67.81
77323;BME280;66384;51.052;9.850;2023-04-24T00:53:57;97289.39;;;11.78;67.64
77323;BME280;66384;51.052;9.850;2023-04-24T00:56:26;97290.06;;;11.82;67.60
77323;BME280;66384;51.052;9.850;2023-04-24T00:58:56;97291.81;;;11.86;67.58
77323;BME280;66384;51.052;9.850;2023-04-24T01:01:27;97291.48;;;11.88;67.20
77323;BME280;66384;51.052;9.850;2023-04-24T01:03:56;97286.47;;;11.88;66.94
77323;BME280;66384;51.052;9.850;2023-04-24T01:06:29;97281.98;;;11.88;67.04
77323;BME280;66384;51.052;9.850;2023-04-24T01:08:59;97284.58;;;11.87;67.09
77323;BME280;66384;51.052;9.850;2023-04-24T01:11:30;97283.02;;;11.85;67.15
77323;BME280;66384;51.052;9.850;2023-04-24T01:13:59;97283.35;;;11.82;67.18
77323;BME280;66384;51.052;9.850;2023-04-24T01:16:29;97282.14;;;11.82;67.24
77323;BME280;66384;51.052;9.850;2023-04-24T01:18:58;97284.05;;;11.78;67.14
77323;BME280;66384;51.052;9.850;2023-04-24T01:21:28;97277.50;;;11.76;67.13
77323;BME280;66384;51.052;9.850;2023-04-24T01:23:59;97270.61;;;11.73;67.14
77323;BME280;66384;51.052;9.850;2023-04-24T01:26:28;97267.86;;;11.73;67.36
77323;BME280;66384;51.052;9.850;2023-04-24T01:28:58;97262.18;;;11.74;67.40
77323;BME280;66384;51.052;9.850;2023-04-24T01:31:27;97258.38;;;11.76;67.37
77323;BME280;66384;51.052;9.850;2023-04-24T01:33:57;97259.76;;;11.78;67.34
77323;BME280;66384;51.052;9.850;2023-04-24T01:36:28;97261.48;;;11.79;67.38
77323;BME280;66384;51.052;9.850;2023-04-24T01:38:57;97258.73;;;11.79;67.27
77323;BME280;66384;51.052;9.850;2023-04-24T01:41:27;97255.80;;;11.77;67.30
77323;BME280;66384;51.052;9.850;2023-04-24T01:43:58;97257.70;;;11.76;67.30
77323;BME280;66384;51.052;9.850;2023-04-24T01:46:27;97256.33;;;11.73;67.35
77323;BME280;66384;51.052;9.850;2023-04-24T01:48:57;97251.33;;;11.69;67.50
77323;BME280;66384;51.052;9.850;2023-04-24T01:51:27;97257.88;;;11.63;67.63
77323;BME280;66384;51.052;9.850;2023-04-24T01:53:56;97249.11;;;11.57;67.79
77323;BME280;66384;51.052;9.850;2023-04-24T01:56:26;97241.70;;;11.54;67.86
77323;BME280;66384;51.052;9.850;2023-04-24T01:58:58;97249.64;;;11.52;68.00
77323;BME280;66384;51.052;9.850;2023-04-24T02:01:31;97251.02;;;11.47;68.01
77323;BME280;66384;51.052;9.850;2023-04-24T02:04:02;97249.11;;;11.44;67.94
77323;BME280;66384;51.052;9.850;2023-04-24T02:06:31;97250.84;;;11.42;68.31
77323;BME280;66384;51.052;9.850;2023-04-24T02:09:01;97246.20;;;11.41;68.24
77323;BME280;66384;51.052;9.850;2023-04-24T02:11:31;97244.48;;;11.37;68.18
77323;BME280;66384;51.052;9.850;2023-04-24T02:14:00;97244.48;;;11.34;68.20
77323;BME280;66384;51.052;9.850;2023-04-24T02:16:30;97245.52;;;11.33;68.25
77323;BME280;66384;51.052;9.850;2023-04-24T02:19:01;97241.71;;;11.32;68.35
77323;BME280;66384;51.052;9.850;2023-04-24T02:21:31;97238.45;;;11.32;68.25
77323;BME280;66384;51.052;9.850;2023-04-24T02:24:00;97241.39;;;11.31;68.00
77323;BME280;66384;51.052;9.850;2023-04-24T02:26:29;97251.70;;;11.29;68.33
77323;BME280;66384;51.052;9.850;2023-04-24T02:28:59;97253.77;;;11.25;68.28
77323;BME280;66384;51.052;9.850;2023-04-24T02:31:29;97254.80;;;11.23;68.40
77323;BME280;66384;51.052;9.850;2023-04-24T02:33:58;97253.59;;;11.23;68.47
77323;BME280;66384;51.052;9.850;2023-04-24T02:36:27;97246.71;;;11.23;68.51
77323;BME280;66384;51.052;9.850;2023-04-24T02:38:58;97251.02;;;11.21;68.57
77323;BME280;66384;51.052;9.850;2023-04-24T02:41:27;97248.45;;;11.18;68.46
77323;BME280;66384;51.052;9.850;2023-04-24T02:43:59;97236.91;;;11.16;68.80
77323;BME280;66384;51.052;9.850;2023-04-24T02:46:28;97237.06;;;11.14;68.79
77323;BME280;66384;51.052;9.850;2023-04-24T02:48:58;97235.02;;;11.16;69.00
77323;BME280;66384;51.052;9.850;2023-04-24T02:51:27;97232.60;;;11.16;68.88
77323;BME280;66384;51.052;9.850;2023-04-24T02:53:56;97234.67;;;11.18;68.76
77323;BME280;66384;51.052;9.850;2023-04-24T02:56:25;97225.02;;;11.20;68.92
77323;BME280;66384;51.052;9.850;2023-04-24T02:58:55;97221.08;;;11.22;68.71
77323;BME280;66384;51.052;9.850;2023-04-24T03:01:24;97218.84;;;11.21;68.65
77323;BME280;66384;51.052;9.850;2023-04-24T03:03:53;97212.82;;;11.21;68.61
77323;BME280;66384;51.052;9.850;2023-04-24T03:06:23;97213.00;;;11.21;68.65
77323;BME280;66384;51.052;9.850;2023-04-24T03:08:52;97215.23;;;11.21;68.89
77323;BME280;66384;51.052;9.850;2023-04-24T03:11:22;97211.45;;;11.19;68.64
77323;BME280;66384;51.052;9.850;2023-04-24T03:13:51;97213.50;;;11.18;68.63
77323;BME280;66384;51.052;9.850;2023-04-24T03:16:21;97210.75;;;11.17;68.70
77323;BME280;66384;51.052;9.850;2023-04-24T03:18:50;97209.02;;;11.14;68.69
77323;BME280;66384;51.052;9.850;2023-04-24T03:21:20;97207.65;;;11.11;68.61
77323;BME280;66384;51.052;9.850;2023-04-24T03:23:49;97203.69;;;11.09;68.91
77323;BME280;66384;51.052;9.850;2023-04-24T03:26:18;97199.73;;;11.10;68.97
77323;BME280;66384;51.052;9.850;2023-04-24T03:28:47;97199.39;;;11.13;69.04
77323;BME280;66384;51.052;9.850;2023-04-24T03:31:17;97198.69;;;11.15;68.95
77323;BME280;66384;51.052;9.850;2023-04-24T03:33:47;97197.31;;;11.16;69.03
77323;BME280;66384;51.052;9.850;2023-04-24T03:36:16;97198.53;;;11.18;68.96
77323;BME280;66384;51.052;9.850;2023-04-24T03:38:45;97190.27;;;11.17;69.04
77323;BME280;66384;51.052;9.850;2023-04-24T03:41:14;97193.72;;;11.16;68.97
77323;BME280;66384;51.052;9.850;2023-04-24T03:43:44;97195.77;;;11.14;69.05
77323;BME280;66384;51.052;9.850;2023-04-24T03:46:13;97194.73;;;11.11;69.15
77323;BME280;66384;51.052;9.850;2023-04-24T03:48:43;97194.23;;;11.10;69.07
77323;BME280;66384;51.052;9.850;2023-04-24T03:51:12;97193.89;;;11.10;69.14
77323;BME280;66384;51.052;9.850;2023-04-24T03:53:41;97197.33;;;11.12;69.22
77323;BME280;66384;51.052;9.850;2023-04-24T03:56:10;97195.61;;;11.13;69.23
77323;BME280;66384;51.052;9.850;2023-04-24T03:58:40;97193.19;;;11.14;69.30
77323;BME280;66384;51.052;9.850;2023-04-24T04:01:09;97196.97;;;11.15;69.18
77323;BME280;66384;51.052;9.850;2023-04-24T04:03:39;97194.40;;;11.14;69.17
77323;BME280;66384;51.052;9.850;2023-04-24T04:06:08;97193.89;;;11.13;69.26
77323;BME280;66384;51.052;9.850;2023-04-24T04:08:39;97194.91;;;11.15;69.29
77323;BME280;66384;51.052;9.850;2023-04-24T04:11:08;97193.88;;;11.17;69.33
77323;BME280;66384;51.052;9.850;2023-04-24T04:13:37;97197.16;;;11.19;69.29
77323;BME280;66384;51.052;9.850;2023-04-24T04:16:07;97199.05;;;11.19;69.25
77323;BME280;66384;51.052;9.850;2023-04-24T04:18:37;97197.84;;;11.19;69.01
77323;BME280;66384;51.052;9.850;2023-04-24T04:21:06;97197.50;;;11.21;69.07
77323;BME280;66384;51.052;9.850;2023-04-24T04:23:36;97189.75;;;11.21;69.23
77323;BME280;66384;51.052;9.850;2023-04-24T04:26:05;97188.90;;;11.22;69.46
77323;BME280;66384;51.052;9.850;2023-04-24T04:28:36;97192.51;;;11.22;69.61
77323;BME280;66384;51.052;9.850;2023-04-24T04:31:06;97197.85;;;11.19;69.61
77323;BME280;66384;51.052;9.850;2023-04-24T04:33:35;97193.37;;;11.14;69.95
77323;BME280;66384;51.052;9.850;2023-04-24T04:36:07;97194.06;;;11.10;70.00
77323;BME280;66384;51.052;9.850;2023-04-24T04:38:36;97194.05;;;11.05;70.13
77323;BME280;66384;51.052;9.850;2023-04-24T04:41:05;97199.73;;;11.02;70.18
77323;BME280;66384;51.052;9.850;2023-04-24T04:43:35;97200.59;;;10.99;70.29
77323;BME280;66384;51.052;9.850;2023-04-24T04:46:04;97207.64;;;10.95;70.44
77323;BME280;66384;51.052;9.850;2023-04-24T04:48:34;97205.08;;;10.95;70.53
77323;BME280;66384;51.052;9.850;2023-04-24T04:51:03;97201.63;;;10.93;70.72
77323;BME280;66384;51.052;9.850;2023-04-24T04:53:33;97202.14;;;10.91;70.62
77323;BME280;66384;51.052;9.850;2023-04-24T04:56:03;97203.35;;;10.89;70.62
77323;BME280;66384;51.052;9.850;2023-04-24T04:58:32;97206.44;;;10.87;70.68
77323;BME280;66384;51.052;9.850;2023-04-24T05:01:01;97214.17;;;10.84;70.54
77323;BME280;66384;51.052;9.850;2023-04-24T05:03:31;97218.98;;;10.83;70.42
77323;BME280;66384;51.052;9.850;2023-04-24T05:06:00;97219.16;;;10.82;70.21
77323;BME280;66384;51.052;9.850;2023-04-24T05:08:30;97215.88;;;10.81;70.10
77323;BME280;66384;51.052;9.850;2023-04-24T05:10:59;97213.30;;;10.81;69.89
77323;BME280;66384;51.052;9.850;2023-04-24T05:13:28;97212.29;;;10.80;69.89
77323;BME280;66384;51.052;9.850;2023-04-24T05:15:58;97226.73;;;10.80;69.57
77323;BME280;66384;51.052;9.850;2023-04-24T05:18:28;97224.84;;;10.81;69.63
77323;BME280;66384;51.052;9.850;2023-04-24T05:20:58;97231.03;;;10.80;69.35
77323;BME280;66384;51.052;9.850;2023-04-24T05:23:27;97233.94;;;10.79;69.18
77323;BME280;66384;51.052;9.850;2023-04-24T05:25:56;97232.74;;;10.78;68.86
77323;BME280;66384;51.052;9.850;2023-04-24T05:28:25;97241.00;;;10.79;68.52
77323;BME280;66384;51.052;9.850;2023-04-24T05:30:56;97243.76;;;10.82;68.16
77323;BME280;66384;51.052;9.850;2023-04-24T05:33:27;97242.03;;;10.81;67.21
77323;BME280;66384;51.052;9.850;2023-04-24T05:35:56;97238.25;;;10.80;66.62
77323;BME280;66384;51.052;9.850;2023-04-24T05:38:25;97242.71;;;10.77;66.04
77323;BME280;66384;51.052;9.850;2023-04-24T05:40:54;97243.73;;;10.76;65.64
77323;BME280;66384;51.052;9.850;2023-04-24T05:43:24;97242.54;;;10.74;65.57
77323;BME280;66384;51.052;9.850;2023-04-24T05:45:53;97251.82;;;10.76;65.43
77323;BME280;66384;51.052;9.850;2023-04-24T05:48:23;97253.71;;;10.76;64.99
77323;BME280;66384;51.052;9.850;2023-04-24T05:50:52;97258.36;;;10.78;65.11
77323;BME280;66384;51.052;9.850;2023-04-24T05:53:21;97264.55;;;10.79;64.85
77323;BME280;66384;51.052;9.850;2023-04-24T05:55:50;97266.27;;;10.79;64.56
77323;BME280;66384;51.052;9.850;2023-04-24T05:58:20;97271.95;;;10.79;64.59
77323;BME280;66384;51.052;9.850;2023-04-24T06:00:49;97271.44;;;10.79;64.74
77323;BME280;66384;51.052;9.850;2023-04-24T06:03:18;97279.86;;;10.80;64.74
77323;BME280;66384;51.052;9.850;2023-04-24T06:05:48;97281.42;;;10.84;64.62
77323;BME280;66384;51.052;9.850;2023-04-24T06:08:18;97281.94;;;10.86;64.32
77323;BME280;66384;51.052;9.850;2023-04-24T06:10:47;97285.90;;;10.87;63.82
77323;BME280;66384;51.052;9.850;2023-04-24T06:13:17;97288.83;;;10.87;63.04
77323;BME280;66384;51.052;9.850;2023-04-24T06:15:46;97292.97;;;10.89;62.48
77323;BME280;66384;51.052;9.850;2023-04-24T06:18:16;97289.52;;;10.93;62.27
77323;BME280;66384;51.052;9.850;2023-04-24T06:20:46;97289.52;;;10.92;60.90
77323;BME280;66384;51.052;9.850;2023-04-24T06:23:15;97295.88;;;10.91;61.04
77323;BME280;66384;51.052;9.850;2023-04-24T06:25:45;97291.92;;;10.90;60.53
77323;BME280;66384;51.052;9.850;2023-04-24T06:28:14;97296.92;;;10.91;59.71
77323;BME280;66384;51.052;9.850;2023-04-24T06:30:43;97304.31;;;10.94;60.09
77323;BME280;66384;51.052;9.850;2023-04-24T06:33:13;97299.86;;;10.98;59.71
77323;BME280;66384;51.052;9.850;2023-04-24T06:35:42;97308.13;;;11.03;59.24
77323;BME280;66384;51.052;9.850;2023-04-24T06:38:11;97315.34;;;11.05;59.38
77323;BME280;66384;51.052;9.850;2023-04-24T06:40:41;97309.86;;;11.09;59.36
77323;BME280;66384;51.052;9.850;2023-04-24T06:43:10;97305.73;;;11.12;59.30
77323;BME280;66384;51.052;9.850;2023-04-24T06:45:40;97316.22;;;11.15;59.15
77323;BME280;66384;51.052;9.850;2023-04-24T06:48:11;97316.59;;;11.17;58.72
77323;BME280;66384;51.052;9.850;2023-04-24T06:50:40;97320.37;;;11.19;59.08
77323;BME280;66384;51.052;9.850;2023-04-24T06:53:09;97320.38;;;11.18;58.43
77323;BME280;66384;51.052;9.850;2023-04-24T06:55:39;97323.96;;;11.16;58.18
77323;BME280;66384;51.052;9.850;2023-04-24T06:58:08;97321.73;;;11.13;57.84
77323;BME280;66384;51.052;9.850;2023-04-24T07:00:37;97323.63;;;11.10;57.95
77323;BME280;66384;51.052;9.850;2023-04-24T07:03:07;97325.85;;;11.11;57.79
77323;BME280;66384;51.052;9.850;2023-04-24T07:05:36;97322.26;;;11.15;57.73
77323;BME280;66384;51.052;9.850;2023-04-24T07:08:06;97323.80;;;11.21;57.33
77323;BME280;66384;51.052;9.850;2023-04-24T07:10:36;97329.50;;;11.29;57.36
77323;BME280;66384;51.052;9.850;2023-04-24T07:13:06;97327.80;;;11.36;56.93
77323;BME280;66384;51.052;9.850;2023-04-24T07:15:36;97328.14;;;11.45;56.91
77323;BME280;66384;51.052;9.850;2023-04-24T07:18:05;97335.72;;;11.53;56.40
77323;BME280;66384;51.052;9.850;2023-04-24T07:20:35;97335.89;;;11.57;54.77
77323;BME280;66384;51.052;9.850;2023-04-24T07:23:04;97337.45;;;11.61;55.14
77323;BME280;66384;51.052;9.850;2023-04-24T07:25:34;97331.76;;;11.64;54.63
77323;BME280;66384;51.052;9.850;2023-04-24T07:28:03;97330.04;;;11.66;54.46
77323;BME280;66384;51.052;9.850;2023-04-24T07:30:32;97324.54;;;11.70;54.74
77323;BME280;66384;51.052;9.850;2023-04-24T07:33:02;97335.55;;;11.75;54.91
77323;BME280;66384;51.052;9.850;2023-04-24T07:35:31;97333.31;;;11.81;54.85
77323;BME280;66384;51.052;9.850;2023-04-24T07:38:02;97327.46;;;11.90;54.26
77323;BME280;66384;51.052;9.850;2023-04-24T07:40:31;97328.84;;;11.93;53.52
77323;BME280;66384;51.052;9.850;2023-04-24T07:43:00;97330.05;;;11.93;53.28
77323;BME280;66384;51.052;9.850;2023-04-24T07:45:29;97334.02;;;11.96;52.77
77323;BME280;66384;51.052;9.850;2023-04-24T07:47:59;97337.46;;;11.99;52.82
77323;BME280;66384;51.052;9.850;2023-04-24T07:50:28;97344.00;;;12.04;52.77
77323;BME280;66384;51.052;9.850;2023-04-24T07:52:57;97344.85;;;12.10;53.08
77323;BME280;66384;51.052;9.850;2023-04-24T07:55:27;97347.60;;;12.13;52.50
77323;BME280;66384;51.052;9.850;2023-04-24T07:57:58;97343.64;;;12.13;52.31
77323;BME280;66384;51.052;9.850;2023-04-24T08:00:27;97346.73;;;12.15;52.89
77323;BME280;66384;51.052;9.850;2023-04-24T08:02:57;97349.66;;;12.16;52.51
77323;BME280;66384;51.052;9.850;2023-04-24T08:05:26;97352.41;;;12.21;52.35
77323;BME280;66384;51.052;9.850;2023-04-24T08:07:56;97349.46;;;12.29;52.15
77323;BME280;66384;51.052;9.850;2023-04-24T08:10:26;97361.87;;;12.36;51.29
77323;BME280;66384;51.052;9.850;2023-04-24T08:12:55;97357.20;;;12.39;50.12
77323;BME280;66384;51.052;9.850;2023-04-24T08:15:25;97359.78;;;12.42;49.63
77323;BME280;66384;51.052;9.850;2023-04-24T08:17:54;97363.73;;;12.45;49.87
77323;BME280;66384;51.052;9.850;2023-04-24T08:20:23;97365.61;;;12.52;50.36
77323;BME280;66384;51.052;9.850;2023-04-24T08:22:53;97361.80;;;12.58;49.64
77323;BME280;66384;51.052;9.850;2023-04-24T08:25:22;97364.05;;;12.57;49.25
77323;BME280;66384;51.052;9.850;2023-04-24T08:27:52;97370.98;;;12.50;49.08
77323;BME280;66384;51.052;9.850;2023-04-24T08:30:22;97370.98;;;12.43;49.58
77323;BME280;66384;51.052;9.850;2023-04-24T08:32:51;97374.09;;;12.37;49.75
77323;BME280;66384;51.052;9.850;2023-04-24T08:35:21;97371.88;;;12.31;50.05
77323;BME280;66384;51.052;9.850;2023-04-24T08:37:51;97377.91;;;12.21;50.64
77323;BME280;66384;51.052;9.850;2023-04-24T08:40:27;97383.45;;;12.16;50.96
77323;BME280;66384;51.052;9.850;2023-04-24T08:42:57;97383.45;;;12.17;50.59
77323;BME280;66384;51.052;9.850;2023-04-24T08:45:28;97393.44;;;12.24;50.13
77323;BME280;66384;51.052;9.850;2023-04-24T08:47:59;97389.45;;;12.33;49.93
77323;BME280;66384;51.052;9.850;2023-04-24T08:50:30;97393.06;;;12.41;49.97
77323;BME280;66384;51.052;9.850;2023-04-24T08:53:02;97394.95;;;12.43;49.54
77323;BME280;66384;51.052;9.850;2023-04-24T08:55:30;97393.06;;;12.36;49.63
77323;BME280;66384;51.052;9.850;2023-04-24T08:58:01;97396.70;;;12.27;49.57
77323;BME280;66384;51.052;9.850;2023-04-24T09:00:31;97397.23;;;12.17;49.88
77323;BME280;66384;51.052;9.850;2023-04-24T09:03:01;97397.75;;;12.09;50.44
77323;BME280;66384;51.052;9.850;2023-04-24T09:05:31;97400.35;;;12.03;50.39
77323;BME280;66384;51.052;9.850;2023-04-24T09:08:03;97402.42;;;11.95;50.79
77323;BME280;66384;51.052;9.850;2023-04-24T09:10:35;97400.17;;;11.91;50.95
77323;BME280;66384;51.052;9.850;2023-04-24T09:13:05;97399.14;;;11.91;50.78
77323;BME280;66384;51.052;9.850;2023-04-24T09:15:37;97403.45;;;11.92;50.78
77323;BME280;66384;51.052;9.850;2023-04-24T09:18:07;97401.20;;;11.95;51.15
77323;BME280;66384;51.052;9.850;2023-04-24T09:20:36;97401.04;;;11.97;51.05
77323;BME280;66384;51.052;9.850;2023-04-24T09:23:27;97392.59;;;12.01;51.21
77323;BME280;66384;51.052;9.850;2023-04-24T09:25:58;97394.65;;;12.06;49.65
77323;BME280;66384;51.052;9.850;2023-04-24T09:28:30;97397.27;;;12.03;49.17
77323;BME280;66384;51.052;9.850;2023-04-24T09:31:12;97398.98;;;11.98;49.40
77323;BME280;66384;51.052;9.850;2023-04-24T09:33:55;97402.23;;;11.97;49.87
77323;BME280;66384;51.052;9.850;2023-04-24T09:36:30;97409.30;;;12.00;50.45
77323;BME280;66384;51.052;9.850;2023-04-24T09:39:01;97406.03;;;12.03;49.90
77323;BME280;66384;51.052;9.850;2023-04-24T09:41:33;97411.73;;;12.05;50.07
77323;BME280;66384;51.052;9.850;2023-04-24T09:44:13;97409.65;;;12.03;50.00
77323;BME280;66384;51.052;9.850;2023-04-24T09:46:44;97418.10;;;12.02;49.68
77323;BME280;66384;51.052;9.850;2023-04-24T09:49:15;97419.64;;;12.03;49.74
77323;BME280;66384;51.052;9.850;2023-04-24T09:51:45;97414.98;;;12.04;49.29
77323;BME280;66384;51.052;9.850;2023-04-24T09:54:19;97417.75;;;12.08;49.87
77323;BME280;66384;51.052;9.850;2023-04-24T09:56:50;97423.44;;;12.13;49.71
77323;BME280;66384;51.052;9.850;2023-04-24T09:59:20;97426.36;;;12.14;49.28
77323;BME280;66384;51.052;9.850;2023-04-24T10:01:50;97434.98;;;12.12;49.54
77323;BME280;66384;51.052;9.850;2023-04-24T10:04:24;97431.02;;;12.10;49.56
77323;BME280;66384;51.052;9.850;2023-04-24T10:06:55;97438.61;;;12.12;49.67
77323;BME280;66384;51.052;9.850;2023-04-24T10:09:26;97436.19;;;12.15;49.46
77323;BME280;66384;51.052;9.850;2023-04-24T10:11:56;97432.57;;;12.20;49.76
77323;BME280;66384;51.052;9.850;2023-04-24T10:14:25;97437.21;;;12.22;49.11
77323;BME280;66384;51.052;9.850;2023-04-24T10:16:55;97433.43;;;12.15;49.22
77323;BME280;66384;51.052;9.850;2023-04-24T10:19:26;97438.08;;;12.11;49.80
77323;BME280;66384;51.052;9.850;2023-04-24T10:21:57;97440.33;;;12.04;49.68
77323;BME280;66384;51.052;9.850;2023-04-24T10:24:27;97447.21;;;11.96;50.11
77323;BME280;66384;51.052;9.850;2023-04-24T10:26:58;97445.14;;;11.88;50.60
77323;BME280;66384;51.052;9.850;2023-04-24T10:29:28;97451.98;;;11.82;50.90
77323;BME280;66384;51.052;9.850;2023-04-24T10:32:00;97452.67;;;11.77;51.20
77323;BME280;66384;51.052;9.850;2023-04-24T10:34:30;97453.20;;;11.72;51.24
77323;BME280;66384;51.052;9.850;2023-04-24T10:36:59;97451.28;;;11.69;51.18
77323;BME280;66384;51.052;9.850;2023-04-24T10:39:29;97446.63;;;11.64;51.43
77323;BME280;66384;51.052;9.850;2023-04-24T10:42:01;97441.63;;;11.62;51.60
77323;BME280;66384;51.052;9.850;2023-04-24T10:44:37;97444.39;;;11.66;51.42
77323;BME280;66384;51.052;9.850;2023-04-24T10:47:07;97441.48;;;11.74;51.58
77323;BME280;66384;51.052;9.850;2023-04-24T10:49:41;97443.39;;;11.82;51.30
77323;BME280;66384;51.052;9.850;2023-04-24T10:52:11;97438.77;;;11.89;51.33
77323;BME280;66384;51.052;9.850;2023-04-24T10:54:45;97432.75;;;11.99;51.60
77323;BME280;66384;51.052;9.850;2023-04-24T10:57:30;97437.73;;;12.09;51.49
77323;BME280;66384;51.052;9.850;2023-04-24T11:00:15;97434.30;;;12.11;51.46
77323;BME280;66384;51.052;9.850;2023-04-24T11:02:47;97438.08;;;12.14;51.74
77323;BME280;66384;51.052;9.850;2023-04-24T11:05:21;97432.58;;;12.15;51.26
77323;BME280;66384;51.052;9.850;2023-04-24T11:08:11;97424.65;;;12.14;52.08
77323;BME280;66384;51.052;9.850;2023-04-24T11:10:45;97433.25;;;12.18;52.68
77323;BME280;66384;51.052;9.850;2023-04-24T11:13:17;97449.98;;;12.12;53.31
77323;BME280;66384;51.052;9.850;2023-04-24T11:16:13;97446.00;;;11.97;54.73
77323;BME280;66384;51.052;9.850;2023-04-24T11:18:43;97445.44;;;11.76;55.65
77323;BME280;66384;51.052;9.850;2023-04-24T11:21:19;97441.98;;;11.68;56.30
77323;BME280;66384;51.052;9.850;2023-04-24T11:23:49;97441.11;;;11.65;56.75
77323;BME280;66384;51.052;9.850;2023-04-24T11:26:21;97431.30;;;11.66;56.29
77323;BME280;66384;51.052;9.850;2023-04-24T11:28:52;97420.80;;;11.68;56.52
77323;BME280;66384;51.052;9.850;2023-04-24T11:31:38;97429.23;;;11.66;56.07
77323;BME280;66384;51.052;9.850;2023-04-24T11:34:13;97429.74;;;11.61;56.10
77323;BME280;66384;51.052;9.850;2023-04-24T11:36:44;97434.56;;;11.58;56.26
77323;BME280;66384;51.052;9.850;2023-04-24T11:39:12;97443.51;;;11.53;56.92
77323;BME280;66384;51.052;9.850;2023-04-24T11:41:41;97445.89;;;11.43;57.89
77323;BME280;66384;51.052;9.850;2023-04-24T11:44:11;97457.92;;;11.34;59.58
77323;BME280;66384;51.052;9.850;2023-04-24T11:46:40;97470.64;;;11.29;60.44
77323;BME280;66384;51.052;9.850;2023-04-24T11:49:09;97472.02;;;11.29;61.30
77323;BME280;66384;51.052;9.850;2023-04-24T11:51:38;97481.84;;;11.31;61.75
77323;BME280;66384;51.052;9.850;2023-04-24T11:54:09;97479.60;;;11.33;61.57
77323;BME280;66384;51.052;9.850;2023-04-24T11:56:38;97487.20;;;11.42;62.09
77323;BME280;66384;51.052;9.850;2023-04-24T11:59:07;97490.17;;;11.56;62.02
77323;BME280;66384;51.052;9.850;2023-04-24T12:01:45;97496.06;;;11.67;61.58
77323;BME280;66384;51.052;9.850;2023-04-24T12:04:16;97497.98;;;11.72;60.21
77323;BME280;66384;51.052;9.850;2023-04-24T12:07:01;97498.15;;;11.72;59.85
77323;BME280;66384;51.052;9.850;2023-04-24T12:09:41;97502.77;;;11.64;59.09
77323;BME280;66384;51.052;9.850;2023-04-24T12:12:12;97513.08;;;11.52;58.46
77323;BME280;66384;51.052;9.850;2023-04-24T12:14:46;97518.91;;;11.45;57.37
77323;BME280;66384;51.052;9.850;2023-04-24T12:17:16;97520.46;;;11.49;57.66
77323;BME280;66384;51.052;9.850;2023-04-24T12:19:49;97523.41;;;11.55;56.68
77323;BME280;66384;51.052;9.850;2023-04-24T12:22:18;97522.04;;;11.57;56.25
77323;BME280;66384;51.052;9.850;2023-04-24T12:25:02;97527.75;;;11.62;56.27
77323;BME280;66384;51.052;9.850;2023-04-24T12:27:33;97532.74;;;11.65;56.03
77323;BME280;66384;51.052;9.850;2023-04-24T12:30:05;97538.61;;;11.66;54.96
77323;BME280;66384;51.052;9.850;2023-04-24T12:32:40;97542.91;;;11.66;55.10
77323;BME280;66384;51.052;9.850;2023-04-24T12:35:10;97546.34;;;11.61;54.62
77323;BME280;66384;51.052;9.850;2023-04-24T12:37:43;97551.66;;;11.55;54.29
77323;BME280;66384;51.052;9.850;2023-04-24T12:40:14;97545.42;;;11.48;54.25
77323;BME280;66384;51.052;9.850;2023-04-24T12:42:46;97545.56;;;11.41;54.56
77323;BME280;66384;51.052;9.850;2023-04-24T12:45:16;97560.35;;;11.37;54.05
77323;BME280;66384;51.052;9.850;2023-04-24T12:47:48;97565.99;;;11.28;54.01
77323;BME280;66384;51.052;9.850;2023-04-24T12:50:17;97565.30;;;11.24;54.56
77323;BME280;66384;51.052;9.850;2023-04-24T12:52:47;97571.48;;;11.26;54.55
77323;BME280;66384;51.052;9.850;2023-04-24T12:55:16;97576.66;;;11.28;54.36
77323;BME280;66384;51.052;9.850;2023-04-24T12:57:46;97575.14;;;11.30;54.62
77323;BME280;66384;51.052;9.850;2023-04-24T13:00:17;97583.73;;;11.29;54.28
77323;BME280;66384;51.052;9.850;2023-04-24T13:02:46;97589.02;;;11.22;53.98
77323;BME280;66384;51.052;9.850;2023-04-24T13:05:16;97593.41;;;11.10;54.00
77323;BME280;66384;51.052;9.850;2023-04-24T13:07:45;97591.80;;;10.98;54.62
77323;BME280;66384;51.052;9.850;2023-04-24T13:10:14;97600.52;;;10.91;55.04
77323;BME280;66384;51.052;9.850;2023-04-24T13:12:44;97596.04;;;10.89;55.29
77323;BME280;66384;51.052;9.850;2023-04-24T13:15:14;97601.03;;;10.89;55.36
77323;BME280;66384;51.052;9.850;2023-04-24T13:17:43;97599.84;;;10.92;55.53